Redwood City, CA (94064)

8:45 PM PDT on September 17, 2014 (GMT -0700)
Redwood City Hills | Change Station
CLOSE
Current Station
Personal Weather Station
Location: Redwood City, CA
Elevation: 170 ft
Nearby Weather Stations

Elev 170 ft 37.47 °N, 122.25 °W | Updated 57 seconds ago

Mostly Cloudy
Mostly Cloudy
72.0 °F
Feels Like 77 °F
N
3.4
Wind Variable Wind from South
Gusts 6.0 mph

Today
High -- | Low -- °F
--% Chance of Precip.
Yesterday
High -- | Low -- °F
Precip. -- in
6:52 AM 7:13 PM
Waning Crescent, 30% visible
Pressure 29.76 in
Visibility 10.0 miles
Clouds Few 4400 ft
Mostly Cloudy 8000 ft
Heat Index 77 °F
Dew Point 54 °F
Humidity 54%
Rainfall 0.00 in
Snow Depth 0 in , 0 in , 0 in
UV 0 out of 12
Pollen 5.10 out of 12
PM2.5 Good
Flu Activity Not available.
METAR KSQL 180251Z 15007KT 10SM FEW044 BKN080 23/13 A2976

More Conditions Fewer Conditions

Pressure 29.76 in
Visibility 10.0 miles
Clouds Few 4400 ft
Mostly Cloudy 8000 ft
Heat Index 77 °F
Dew Point 54 °F
Humidity 54%
Rainfall 0.00 in
Snow Depth 0 in , 0 in , 0 in
UV 0 out of 12
Pollen 5.10 out of 12
PM2.5 Good
Flu Activity Not available.
METAR KSQL 180251Z 15007KT 10SM FEW044 BKN080 23/13 A2976

More Conditions Fewer Conditions

10-Day Weather Forecast

Almanac

Astronomy

Sep. 17, 2014 Rise Set
Actual Time 6:52 AM PDT 7:13 PM PDT
Civil Twilight 6:26 AM PDT 7:39 PM PDT
Nautical Twilight 5:55 AM PDT 8:10 PM PDT
Astronomical Twilight 5:24 AM PDT 8:41 PM PDT
Moon 1:02 AM PDT (9/17) 3:22 PM PDT (9/17)
Length of Visible Light 13h 13m
Length of Day
12h 20m
Tomorrow will be 2m 23s shorter.
Waning Crescent, 30% of the Moon is Illuminated
Today
Waning Crescent
Sep 24
New
Oct 1
First Quarter
Oct 8
Full
Oct 15
Last Quarter

Today's Extremes

State Highs State Lows

Community

WunderPhotos

Upload Photos

1,754,283 photos uploaded!

Nearby

Air Quality

  Air Quality AQ Index Pollutant
Yesterday Good
PM2.5
Yesterday Good
OZONE
Current Good
PM2.5
Wednesday Good
OZONE
Thursday Good
OZONE
Friday Good
OZONE
Saturday Good
PM2.5
Sunday Good
PM2.5
Monday Good
PM2.5

Snow Depth

Station Depth Elevation
Blue Lakes 0 in 8000 ft
Hagan's Meadow 0 in 8000 ft
Tahoe City Cross 0 in 6750 ft
Echo Peak 0 in 7800 ft
Spratt Creek 0 in 6200 ft

Earthquake Activity

City Distance Mag. Time & Date
Cobb, California 95 miles 2.7 1:23 PM PDT
2014-09-16
Minimum magnitude displayed is 2.5.

Coastal Water Temperatures

Place Temperature
No Stations Reporting

Nearby Weather Stations